sensor_id;sensor_type;location;lat;lon;timestamp;P1;durP1;ratioP1;P2;durP2;ratioP2
69847;SDS011;57143;55.940;37.496;2023-05-07T00:02:26;12.37;;;2.53;;
69847;SDS011;57143;55.940;37.496;2023-05-07T00:04:53;8.52;;;2.60;;
69847;SDS011;57143;55.940;37.496;2023-05-07T00:07:20;9.50;;;3.22;;
69847;SDS011;57143;55.940;37.496;2023-05-07T00:09:47;8.95;;;2.72;;
69847;SDS011;57143;55.940;37.496;2023-05-07T00:12:15;8.50;;;2.60;;
69847;SDS011;57143;55.940;37.496;2023-05-07T00:14:42;13.20;;;2.87;;
69847;SDS011;57143;55.940;37.496;2023-05-07T00:17:09;7.20;;;2.65;;
69847;SDS011;57143;55.940;37.496;2023-05-07T00:19:37;8.25;;;2.60;;
69847;SDS011;57143;55.940;37.496;2023-05-07T01:24:24;7.38;;;2.15;;
69847;SDS011;57143;55.940;37.496;2023-05-07T01:26:51;9.67;;;1.50;;
69847;SDS011;57143;55.940;37.496;2023-05-07T01:29:18;7.13;;;1.92;;
69847;SDS011;57143;55.940;37.496;2023-05-07T01:31:45;12.35;;;2.13;;
69847;SDS011;57143;55.940;37.496;2023-05-07T01:34:14;7.22;;;2.22;;
69847;SDS011;57143;55.940;37.496;2023-05-07T01:36:43;7.60;;;2.03;;
69847;SDS011;57143;55.940;37.496;2023-05-07T01:39:11;7.60;;;1.87;;
69847;SDS011;57143;55.940;37.496;2023-05-07T01:41:40;8.13;;;2.30;;
69847;SDS011;57143;55.940;37.496;2023-05-07T01:44:09;8.43;;;2.55;;
69847;SDS011;57143;55.940;37.496;2023-05-07T01:46:39;7.00;;;2.22;;
69847;SDS011;57143;55.940;37.496;2023-05-07T01:49:06;8.40;;;2.30;;
69847;SDS011;57143;55.940;37.496;2023-05-07T01:51:33;10.13;;;2.43;;
69847;SDS011;57143;55.940;37.496;2023-05-07T01:54:01;9.13;;;2.58;;
69847;SDS011;57143;55.940;37.496;2023-05-07T01:56:28;10.60;;;3.15;;
69847;SDS011;57143;55.940;37.496;2023-05-07T01:58:56;8.05;;;2.20;;
69847;SDS011;57143;55.940;37.496;2023-05-07T02:01:24;7.22;;;1.95;;
69847;SDS011;57143;55.940;37.496;2023-05-07T02:03:51;11.30;;;2.70;;
69847;SDS011;57143;55.940;37.496;2023-05-07T02:06:19;8.48;;;2.30;;
69847;SDS011;57143;55.940;37.496;2023-05-07T02:08:46;8.52;;;2.20;;
69847;SDS011;57143;55.940;37.496;2023-05-07T02:11:13;8.10;;;2.67;;
69847;SDS011;57143;55.940;37.496;2023-05-07T02:13:41;8.60;;;2.88;;
69847;SDS011;57143;55.940;37.496;2023-05-07T02:16:09;6.80;;;2.03;;
69847;SDS011;57143;55.940;37.496;2023-05-07T02:18:39;7.25;;;2.30;;
69847;SDS011;57143;55.940;37.496;2023-05-07T02:21:06;9.10;;;3.00;;
69847;SDS011;57143;55.940;37.496;2023-05-07T02:23:33;8.07;;;2.80;;
69847;SDS011;57143;55.940;37.496;2023-05-07T02:26:01;7.60;;;2.13;;
69847;SDS011;57143;55.940;37.496;2023-05-07T02:28:28;7.97;;;2.53;;
69847;SDS011;57143;55.940;37.496;2023-05-07T02:30:55;7.95;;;2.30;;
69847;SDS011;57143;55.940;37.496;2023-05-07T02:33:25;7.50;;;2.58;;
69847;SDS011;57143;55.940;37.496;2023-05-07T02:35:52;6.95;;;2.17;;
69847;SDS011;57143;55.940;37.496;2023-05-07T02:38:19;8.73;;;2.65;;
69847;SDS011;57143;55.940;37.496;2023-05-07T02:40:46;6.27;;;2.23;;
69847;SDS011;57143;55.940;37.496;2023-05-07T02:43:13;7.50;;;2.13;;
69847;SDS011;57143;55.940;37.496;2023-05-07T02:45:41;7.72;;;2.38;;
69847;SDS011;57143;55.940;37.496;2023-05-07T02:48:08;8.10;;;2.65;;
69847;SDS011;57143;55.940;37.496;2023-05-07T02:50:36;7.85;;;2.42;;
69847;SDS011;57143;55.940;37.496;2023-05-07T02:53:04;8.03;;;2.40;;
69847;SDS011;57143;55.940;37.496;2023-05-07T02:55:31;7.28;;;2.10;;
69847;SDS011;57143;55.940;37.496;2023-05-07T02:57:58;7.45;;;2.83;;
69847;SDS011;57143;55.940;37.496;2023-05-07T03:00:25;9.38;;;2.42;;
69847;SDS011;57143;55.940;37.496;2023-05-07T03:02:52;7.22;;;2.45;;
69847;SDS011;57143;55.940;37.496;2023-05-07T03:05:19;6.63;;;2.63;;
69847;SDS011;57143;55.940;37.496;2023-05-07T03:07:48;7.80;;;2.50;;
69847;SDS011;57143;55.940;37.496;2023-05-07T03:10:15;7.55;;;2.55;;
69847;SDS011;57143;55.940;37.496;2023-05-07T03:12:43;7.10;;;2.17;;
69847;SDS011;57143;55.940;37.496;2023-05-07T03:15:11;6.65;;;2.20;;
69847;SDS011;57143;55.940;37.496;2023-05-07T03:17:38;6.43;;;2.60;;
69847;SDS011;57143;55.940;37.496;2023-05-07T03:20:06;6.00;;;2.20;;
69847;SDS011;57143;55.940;37.496;2023-05-07T03:22:34;8.23;;;2.60;;
69847;SDS011;57143;55.940;37.496;2023-05-07T03:25:03;6.30;;;2.05;;
69847;SDS011;57143;55.940;37.496;2023-05-07T03:27:35;5.80;;;2.10;;
69847;SDS011;57143;55.940;37.496;2023-05-07T03:30:02;6.07;;;2.00;;
69847;SDS011;57143;55.940;37.496;2023-05-07T03:32:31;6.25;;;2.05;;
69847;SDS011;57143;55.940;37.496;2023-05-07T03:34:58;6.45;;;2.30;;
69847;SDS011;57143;55.940;37.496;2023-05-07T03:37:26;6.10;;;2.28;;
69847;SDS011;57143;55.940;37.496;2023-05-07T03:39:53;5.80;;;2.10;;
69847;SDS011;57143;55.940;37.496;2023-05-07T03:42:21;5.90;;;2.17;;
69847;SDS011;57143;55.940;37.496;2023-05-07T03:44:49;6.68;;;2.05;;
69847;SDS011;57143;55.940;37.496;2023-05-07T03:47:16;7.30;;;2.45;;
69847;SDS011;57143;55.940;37.496;2023-05-07T03:49:43;6.45;;;2.30;;
69847;SDS011;57143;55.940;37.496;2023-05-07T03:52:10;8.50;;;2.17;;
69847;SDS011;57143;55.940;37.496;2023-05-07T03:54:37;6.90;;;2.20;;
69847;SDS011;57143;55.940;37.496;2023-05-07T03:57:04;8.07;;;2.42;;
69847;SDS011;57143;55.940;37.496;2023-05-07T03:59:33;6.03;;;2.05;;
69847;SDS011;57143;55.940;37.496;2023-05-07T04:02:00;6.85;;;2.33;;
69847;SDS011;57143;55.940;37.496;2023-05-07T04:04:27;5.75;;;2.30;;
69847;SDS011;57143;55.940;37.496;2023-05-07T04:06:58;5.87;;;2.30;;
69847;SDS011;57143;55.940;37.496;2023-05-07T04:09:25;5.47;;;2.22;;
69847;SDS011;57143;55.940;37.496;2023-05-07T04:11:52;6.43;;;2.40;;
69847;SDS011;57143;55.940;37.496;2023-05-07T04:14:20;5.60;;;2.25;;
69847;SDS011;57143;55.940;37.496;2023-05-07T04:16:48;6.82;;;2.30;;
69847;SDS011;57143;55.940;37.496;2023-05-07T04:19:15;7.93;;;1.73;;
69847;SDS011;57143;55.940;37.496;2023-05-07T04:21:42;7.45;;;2.03;;
69847;SDS011;57143;55.940;37.496;2023-05-07T04:24:09;5.30;;;1.92;;
69847;SDS011;57143;55.940;37.496;2023-05-07T04:26:37;6.90;;;2.33;;
69847;SDS011;57143;55.940;37.496;2023-05-07T04:29:04;5.72;;;2.17;;
69847;SDS011;57143;55.940;37.496;2023-05-07T04:31:31;5.90;;;2.13;;
69847;SDS011;57143;55.940;37.496;2023-05-07T04:34:00;5.57;;;2.05;;
69847;SDS011;57143;55.940;37.496;2023-05-07T04:36:27;6.93;;;2.08;;
69847;SDS011;57143;55.940;37.496;2023-05-07T04:38:54;5.13;;;1.63;;
69847;SDS011;57143;55.940;37.496;2023-05-07T04:41:21;5.82;;;1.73;;
69847;SDS011;57143;55.940;37.496;2023-05-07T04:43:48;4.97;;;1.67;;
69847;SDS011;57143;55.940;37.496;2023-05-07T04:46:16;6.47;;;1.70;;
69847;SDS011;57143;55.940;37.496;2023-05-07T04:48:43;5.82;;;1.83;;
69847;SDS011;57143;55.940;37.496;2023-05-07T04:51:12;4.60;;;1.35;;
69847;SDS011;57143;55.940;37.496;2023-05-07T04:53:39;4.82;;;1.35;;
69847;SDS011;57143;55.940;37.496;2023-05-07T04:56:06;4.90;;;1.37;;
69847;SDS011;57143;55.940;37.496;2023-05-07T04:58:33;5.13;;;1.27;;
69847;SDS011;57143;55.940;37.496;2023-05-07T05:01:00;6.05;;;1.48;;
69847;SDS011;57143;55.940;37.496;2023-05-07T05:03:28;4.90;;;1.27;;
69847;SDS011;57143;55.940;37.496;2023-05-07T05:05:55;5.68;;;1.17;;
69847;SDS011;57143;55.940;37.496;2023-05-07T05:08:26;6.03;;;1.37;;
69847;SDS011;57143;55.940;37.496;2023-05-07T05:10:53;4.50;;;1.40;;
69847;SDS011;57143;55.940;37.496;2023-05-07T05:13:20;4.97;;;1.40;;
69847;SDS011;57143;55.940;37.496;2023-05-07T05:15:47;4.88;;;1.38;;
69847;SDS011;57143;55.940;37.496;2023-05-07T05:18:14;5.13;;;1.30;;
69847;SDS011;57143;55.940;37.496;2023-05-07T05:20:41;8.33;;;1.37;;
69847;SDS011;57143;55.940;37.496;2023-05-07T05:23:09;4.43;;;1.38;;
69847;SDS011;57143;55.940;37.496;2023-05-07T05:25:37;4.50;;;1.10;;
69847;SDS011;57143;55.940;37.496;2023-05-07T05:28:05;6.75;;;1.27;;
69847;SDS011;57143;55.940;37.496;2023-05-07T05:30:32;4.00;;;0.90;;
69847;SDS011;57143;55.940;37.496;2023-05-07T05:32:59;4.60;;;1.10;;
69847;SDS011;57143;55.940;37.496;2023-05-07T05:35:26;7.50;;;0.93;;
69847;SDS011;57143;55.940;37.496;2023-05-07T05:37:53;6.05;;;1.05;;
69847;SDS011;57143;55.940;37.496;2023-05-07T05:40:20;6.55;;;1.15;;
69847;SDS011;57143;55.940;37.496;2023-05-07T05:42:49;4.90;;;1.10;;
69847;SDS011;57143;55.940;37.496;2023-05-07T05:45:16;4.63;;;1.30;;
69847;SDS011;57143;55.940;37.496;2023-05-07T05:47:43;3.88;;;0.90;;
69847;SDS011;57143;55.940;37.496;2023-05-07T05:50:11;4.85;;;1.08;;
69847;SDS011;57143;55.940;37.496;2023-05-07T05:52:38;5.40;;;1.10;;
69847;SDS011;57143;55.940;37.496;2023-05-07T05:55:06;4.03;;;0.85;;
69847;SDS011;57143;55.940;37.496;2023-05-07T05:57:34;6.07;;;1.17;;
69847;SDS011;57143;55.940;37.496;2023-05-07T06:00:02;4.88;;;1.15;;
69847;SDS011;57143;55.940;37.496;2023-05-07T06:02:33;3.72;;;0.90;;
69847;SDS011;57143;55.940;37.496;2023-05-07T06:05:00;3.70;;;0.93;;
69847;SDS011;57143;55.940;37.496;2023-05-07T06:07:29;3.28;;;0.80;;
69847;SDS011;57143;55.940;37.496;2023-05-07T06:09:56;6.53;;;1.13;;
69847;SDS011;57143;55.940;37.496;2023-05-07T06:12:23;4.70;;;0.90;;
69847;SDS011;57143;55.940;37.496;2023-05-07T06:14:50;4.93;;;0.98;;
69847;SDS011;57143;55.940;37.496;2023-05-07T06:17:19;3.80;;;1.00;;
69847;SDS011;57143;55.940;37.496;2023-05-07T06:19:46;3.92;;;0.80;;
69847;SDS011;57143;55.940;37.496;2023-05-07T06:22:13;4.90;;;1.00;;
69847;SDS011;57143;55.940;37.496;2023-05-07T06:24:40;4.50;;;0.98;;
69847;SDS011;57143;55.940;37.496;2023-05-07T06:27:07;3.80;;;0.90;;
69847;SDS011;57143;55.940;37.496;2023-05-07T06:29:34;5.40;;;1.10;;
69847;SDS011;57143;55.940;37.496;2023-05-07T06:32:11;6.22;;;1.10;;
69847;SDS011;57143;55.940;37.496;2023-05-07T06:34:40;4.57;;;0.90;;
69847;SDS011;57143;55.940;37.496;2023-05-07T06:37:08;4.50;;;0.90;;
69847;SDS011;57143;55.940;37.496;2023-05-07T06:39:36;3.95;;;1.00;;
69847;SDS011;57143;55.940;37.496;2023-05-07T06:42:03;3.88;;;1.00;;
69847;SDS011;57143;55.940;37.496;2023-05-07T06:44:31;5.00;;;1.30;;
69847;SDS011;57143;55.940;37.496;2023-05-07T06:46:58;4.07;;;1.00;;
69847;SDS011;57143;55.940;37.496;2023-05-07T06:49:25;6.07;;;1.15;;
69847;SDS011;57143;55.940;37.496;2023-05-07T06:51:54;4.35;;;1.10;;
69847;SDS011;57143;55.940;37.496;2023-05-07T06:54:21;3.45;;;0.82;;
69847;SDS011;57143;55.940;37.496;2023-05-07T06:56:49;3.90;;;0.70;;
69847;SDS011;57143;55.940;37.496;2023-05-07T06:59:16;3.63;;;0.80;;
69847;SDS011;57143;55.940;37.496;2023-05-07T07:01:44;4.05;;;0.90;;
69847;SDS011;57143;55.940;37.496;2023-05-07T07:04:11;4.30;;;1.17;;
69847;SDS011;57143;55.940;37.496;2023-05-07T07:06:38;3.72;;;0.90;;
69847;SDS011;57143;55.940;37.496;2023-05-07T07:09:07;3.83;;;0.90;;
69847;SDS011;57143;55.940;37.496;2023-05-07T07:11:34;3.60;;;0.90;;
69847;SDS011;57143;55.940;37.496;2023-05-07T07:14:02;4.10;;;0.70;;
69847;SDS011;57143;55.940;37.496;2023-05-07T07:16:30;3.88;;;0.88;;
69847;SDS011;57143;55.940;37.496;2023-05-07T07:18:57;4.53;;;1.20;;
69847;SDS011;57143;55.940;37.496;2023-05-07T07:21:24;3.90;;;0.85;;
69847;SDS011;57143;55.940;37.496;2023-05-07T07:23:51;4.10;;;0.83;;
69847;SDS011;57143;55.940;37.496;2023-05-07T07:26:20;3.90;;;0.85;;
69847;SDS011;57143;55.940;37.496;2023-05-07T07:28:47;3.83;;;1.05;;
69847;SDS011;57143;55.940;37.496;2023-05-07T07:31:14;4.72;;;1.00;;
69847;SDS011;57143;55.940;37.496;2023-05-07T07:33:41;3.67;;;1.00;;
69847;SDS011;57143;55.940;37.496;2023-05-07T07:36:09;4.10;;;0.97;;
69847;SDS011;57143;55.940;37.496;2023-05-07T07:38:36;4.82;;;1.00;;
69847;SDS011;57143;55.940;37.496;2023-05-07T07:41:03;4.57;;;1.00;;
69847;SDS011;57143;55.940;37.496;2023-05-07T07:43:32;3.67;;;0.90;;
69847;SDS011;57143;55.940;37.496;2023-05-07T07:45:59;4.93;;;1.13;;
69847;SDS011;57143;55.940;37.496;2023-05-07T07:48:26;4.20;;;0.90;;
69847;SDS011;57143;55.940;37.496;2023-05-07T07:50:53;3.80;;;0.90;;
69847;SDS011;57143;55.940;37.496;2023-05-07T07:53:20;4.18;;;1.05;;
69847;SDS011;57143;55.940;37.496;2023-05-07T07:55:48;5.82;;;1.00;;
69847;SDS011;57143;55.940;37.496;2023-05-07T07:58:15;5.30;;;1.08;;
69847;SDS011;57143;55.940;37.496;2023-05-07T08:00:43;3.70;;;0.80;;
69847;SDS011;57143;55.940;37.496;2023-05-07T08:03:10;4.47;;;1.05;;
69847;SDS011;57143;55.940;37.496;2023-05-07T08:05:38;4.55;;;1.20;;
69847;SDS011;57143;55.940;37.496;2023-05-07T08:08:05;3.88;;;0.80;;
69847;SDS011;57143;55.940;37.496;2023-05-07T08:10:32;4.10;;;1.15;;
69847;SDS011;57143;55.940;37.496;2023-05-07T08:13:03;6.23;;;1.10;;
69847;SDS011;57143;55.940;37.496;2023-05-07T08:15:31;4.10;;;0.90;;
69847;SDS011;57143;55.940;37.496;2023-05-07T08:18:00;5.13;;;1.00;;
69847;SDS011;57143;55.940;37.496;2023-05-07T08:20:28;7.47;;;1.30;;
69847;SDS011;57143;55.940;37.496;2023-05-07T08:22:56;4.53;;;1.17;;
69847;SDS011;57143;55.940;37.496;2023-05-07T08:25:23;7.03;;;0.97;;
69847;SDS011;57143;55.940;37.496;2023-05-07T08:27:50;3.92;;;0.90;;
69847;SDS011;57143;55.940;37.496;2023-05-07T08:30:18;5.18;;;0.90;;
69847;SDS011;57143;55.940;37.496;2023-05-07T08:32:45;4.47;;;0.98;;
69847;SDS011;57143;55.940;37.496;2023-05-07T08:35:14;3.60;;;0.80;;
69847;SDS011;57143;55.940;37.496;2023-05-07T08:37:42;6.13;;;1.20;;
69847;SDS011;57143;55.940;37.496;2023-05-07T08:40:09;4.20;;;1.05;;
69847;SDS011;57143;55.940;37.496;2023-05-07T08:42:37;3.85;;;0.88;;
69847;SDS011;57143;55.940;37.496;2023-05-07T08:45:08;3.65;;;0.80;;
69847;SDS011;57143;55.940;37.496;2023-05-07T08:47:40;3.80;;;0.90;;
69847;SDS011;57143;55.940;37.496;2023-05-07T08:50:10;3.83;;;0.83;;
69847;SDS011;57143;55.940;37.496;2023-05-07T08:52:40;4.43;;;0.90;;
69847;SDS011;57143;55.940;37.496;2023-05-07T08:55:08;3.60;;;1.02;;
69847;SDS011;57143;55.940;37.496;2023-05-07T08:57:36;4.35;;;0.90;;
69847;SDS011;57143;55.940;37.496;2023-05-07T09:00:03;5.95;;;0.88;;
69847;SDS011;57143;55.940;37.496;2023-05-07T09:02:33;4.13;;;0.90;;
69847;SDS011;57143;55.940;37.496;2023-05-07T09:05:01;5.22;;;1.00;;
69847;SDS011;57143;55.940;37.496;2023-05-07T09:07:29;3.70;;;0.98;;
69847;SDS011;57143;55.940;37.496;2023-05-07T09:09:59;4.57;;;1.00;;
69847;SDS011;57143;55.940;37.496;2023-05-07T09:12:29;3.60;;;0.90;;
69847;SDS011;57143;55.940;37.496;2023-05-07T09:14:57;3.87;;;0.80;;
69847;SDS011;57143;55.940;37.496;2023-05-07T09:17:26;3.97;;;0.75;;
69847;SDS011;57143;55.940;37.496;2023-05-07T09:19:53;4.25;;;1.00;;
69847;SDS011;57143;55.940;37.496;2023-05-07T09:22:20;3.95;;;0.77;;
69847;SDS011;57143;55.940;37.496;2023-05-07T09:24:48;4.20;;;0.90;;
69847;SDS011;57143;55.940;37.496;2023-05-07T09:27:17;3.47;;;0.90;;
69847;SDS011;57143;55.940;37.496;2023-05-07T09:29:45;5.80;;;0.80;;
69847;SDS011;57143;55.940;37.496;2023-05-07T09:32:12;4.25;;;0.73;;
69847;SDS011;57143;55.940;37.496;2023-05-07T09:34:41;4.40;;;1.38;;
69847;SDS011;57143;55.940;37.496;2023-05-07T09:37:10;4.03;;;0.90;;
69847;SDS011;57143;55.940;37.496;2023-05-07T09:39:39;3.97;;;0.90;;
69847;SDS011;57143;55.940;37.496;2023-05-07T09:42:07;3.72;;;0.75;;
69847;SDS011;57143;55.940;37.496;2023-05-07T09:44:36;3.65;;;0.80;;
69847;SDS011;57143;55.940;37.496;2023-05-07T09:47:04;4.70;;;0.90;;
69847;SDS011;57143;55.940;37.496;2023-05-07T09:49:34;4.80;;;0.85;;
69847;SDS011;57143;55.940;37.496;2023-05-07T09:52:02;4.33;;;1.00;;
69847;SDS011;57143;55.940;37.496;2023-05-07T09:54:32;3.58;;;0.77;;
69847;SDS011;57143;55.940;37.496;2023-05-07T09:57:00;3.80;;;0.90;;
69847;SDS011;57143;55.940;37.496;2023-05-07T09:59:28;4.47;;;0.90;;
69847;SDS011;57143;55.940;37.496;2023-05-07T10:01:59;3.97;;;0.70;;
69847;SDS011;57143;55.940;37.496;2023-05-07T10:04:28;4.07;;;0.93;;
69847;SDS011;57143;55.940;37.496;2023-05-07T10:06:55;4.90;;;0.93;;
69847;SDS011;57143;55.940;37.496;2023-05-07T10:09:24;3.88;;;0.85;;
69847;SDS011;57143;55.940;37.496;2023-05-07T10:11:52;4.10;;;1.10;;
69847;SDS011;57143;55.940;37.496;2023-05-07T10:14:20;4.93;;;1.10;;
69847;SDS011;57143;55.940;37.496;2023-05-07T10:16:48;4.57;;;0.97;;
69847;SDS011;57143;55.940;37.496;2023-05-07T10:19:17;4.30;;;1.05;;
69847;SDS011;57143;55.940;37.496;2023-05-07T10:21:48;4.50;;;1.00;;
69847;SDS011;57143;55.940;37.496;2023-05-07T10:24:25;4.10;;;0.80;;
69847;SDS011;57143;55.940;37.496;2023-05-07T10:26:53;4.20;;;1.00;;
69847;SDS011;57143;55.940;37.496;2023-05-07T10:29:25;5.17;;;1.13;;
69847;SDS011;57143;55.940;37.496;2023-05-07T10:32:01;4.70;;;1.15;;
69847;SDS011;57143;55.940;37.496;2023-05-07T10:34:43;6.35;;;1.23;;
69847;SDS011;57143;55.940;37.496;2023-05-07T10:37:13;4.43;;;0.98;;
69847;SDS011;57143;55.940;37.496;2023-05-07T10:39:41;5.93;;;1.13;;
69847;SDS011;57143;55.940;37.496;2023-05-07T10:42:09;4.50;;;0.90;;
69847;SDS011;57143;55.940;37.496;2023-05-07T10:44:36;4.65;;;0.98;;
69847;SDS011;57143;55.940;37.496;2023-05-07T10:47:04;4.65;;;1.02;;
69847;SDS011;57143;55.940;37.496;2023-05-07T10:49:36;4.63;;;1.00;;
69847;SDS011;57143;55.940;37.496;2023-05-07T10:52:17;4.82;;;0.93;;
69847;SDS011;57143;55.940;37.496;2023-05-07T10:54:45;4.50;;;0.90;;
69847;SDS011;57143;55.940;37.496;2023-05-07T11:00:06;3.58;;;0.80;;
69847;SDS011;57143;55.940;37.496;2023-05-07T11:03:09;4.72;;;1.17;;
69847;SDS011;57143;55.940;37.496;2023-05-07T11:05:37;5.00;;;0.93;;
69847;SDS011;57143;55.940;37.496;2023-05-07T11:08:06;6.03;;;0.80;;
69847;SDS011;57143;55.940;37.496;2023-05-07T11:10:50;5.07;;;0.90;;
69847;SDS011;57143;55.940;37.496;2023-05-07T11:16:16;4.18;;;0.90;;
69847;SDS011;57143;55.940;37.496;2023-05-07T11:18:47;4.20;;;0.90;;
69847;SDS011;57143;55.940;37.496;2023-05-07T11:24:02;4.95;;;1.05;;
69847;SDS011;57143;55.940;37.496;2023-05-07T11:26:31;5.07;;;1.10;;
69847;SDS011;57143;55.940;37.496;2023-05-07T11:29:13;4.40;;;1.00;;
69847;SDS011;57143;55.940;37.496;2023-05-07T11:31:42;4.53;;;0.88;;
69847;SDS011;57143;55.940;37.496;2023-05-07T11:34:09;7.13;;;1.20;;
69847;SDS011;57143;55.940;37.496;2023-05-07T11:36:41;5.63;;;1.25;;
69847;SDS011;57143;55.940;37.496;2023-05-07T11:39:24;4.80;;;1.10;;
69847;SDS011;57143;55.940;37.496;2023-05-07T11:41:55;5.10;;;1.30;;
69847;SDS011;57143;55.940;37.496;2023-05-07T11:44:22;4.45;;;1.00;;
69847;SDS011;57143;55.940;37.496;2023-05-07T11:46:50;4.33;;;1.20;;
69847;SDS011;57143;55.940;37.496;2023-05-07T11:49:17;4.75;;;0.88;;
69847;SDS011;57143;55.940;37.496;2023-05-07T11:51:45;5.35;;;1.02;;
69847;SDS011;57143;55.940;37.496;2023-05-07T11:54:15;3.40;;;0.80;;
69847;SDS011;57143;55.940;37.496;2023-05-07T11:56:45;5.82;;;1.20;;
69847;SDS011;57143;55.940;37.496;2023-05-07T11:59:16;4.70;;;1.07;;
69847;SDS011;57143;55.940;37.496;2023-05-07T12:01:45;4.70;;;0.88;;
69847;SDS011;57143;55.940;37.496;2023-05-07T12:04:13;4.63;;;0.95;;
69847;SDS011;57143;55.940;37.496;2023-05-07T12:06:40;5.00;;;1.17;;
69847;SDS011;57143;55.940;37.496;2023-05-07T12:09:07;4.45;;;1.20;;
69847;SDS011;57143;55.940;37.496;2023-05-07T12:11:37;5.33;;;1.10;;
69847;SDS011;57143;55.940;37.496;2023-05-07T12:14:07;5.72;;;1.25;;
69847;SDS011;57143;55.940;37.496;2023-05-07T12:16:34;5.03;;;1.20;;
69847;SDS011;57143;55.940;37.496;2023-05-07T12:19:02;4.47;;;1.05;;
69847;SDS011;57143;55.940;37.496;2023-05-07T12:21:29;4.78;;;0.90;;
69847;SDS011;57143;55.940;37.496;2023-05-07T12:23:56;4.03;;;0.80;;
69847;SDS011;57143;55.940;37.496;2023-05-07T12:26:24;5.47;;;1.00;;
69847;SDS011;57143;55.940;37.496;2023-05-07T12:28:51;5.82;;;1.20;;
69847;SDS011;57143;55.940;37.496;2023-05-07T12:31:20;4.43;;;0.90;;
69847;SDS011;57143;55.940;37.496;2023-05-07T12:33:47;4.45;;;1.17;;
69847;SDS011;57143;55.940;37.496;2023-05-07T12:36:15;4.50;;;0.97;;
69847;SDS011;57143;55.940;37.496;2023-05-07T12:38:42;4.80;;;1.13;;
69847;SDS011;57143;55.940;37.496;2023-05-07T12:41:10;4.93;;;1.05;;
69847;SDS011;57143;55.940;37.496;2023-05-07T12:43:38;3.88;;;0.98;;
69847;SDS011;57143;55.940;37.496;2023-05-07T12:46:05;7.32;;;1.38;;
69847;SDS011;57143;55.940;37.496;2023-05-07T12:48:37;4.80;;;1.20;;
69847;SDS011;57143;55.940;37.496;2023-05-07T12:51:05;5.70;;;1.20;;
69847;SDS011;57143;55.940;37.496;2023-05-07T12:53:39;4.68;;;1.08;;
69847;SDS011;57143;55.940;37.496;2023-05-07T12:56:07;5.38;;;1.27;;
69847;SDS011;57143;55.940;37.496;2023-05-07T12:58:35;4.60;;;0.90;;
69847;SDS011;57143;55.940;37.496;2023-05-07T13:01:04;4.23;;;0.70;;
69847;SDS011;57143;55.940;37.496;2023-05-07T13:03:32;5.18;;;1.20;;
69847;SDS011;57143;55.940;37.496;2023-05-07T13:06:02;4.00;;;1.00;;
69847;SDS011;57143;55.940;37.496;2023-05-07T13:08:31;4.55;;;1.20;;
69847;SDS011;57143;55.940;37.496;2023-05-07T13:11:00;5.88;;;1.38;;
69847;SDS011;57143;55.940;37.496;2023-05-07T13:13:29;5.20;;;1.20;;
69847;SDS011;57143;55.940;37.496;2023-05-07T13:15:57;4.40;;;1.08;;
69847;SDS011;57143;55.940;37.496;2023-05-07T13:18:25;4.05;;;1.35;;
69847;SDS011;57143;55.940;37.496;2023-05-07T13:20:53;4.82;;;1.30;;
69847;SDS011;57143;55.940;37.496;2023-05-07T13:23:22;5.05;;;1.13;;
69847;SDS011;57143;55.940;37.496;2023-05-07T13:25:50;3.93;;;0.90;;
69847;SDS011;57143;55.940;37.496;2023-05-07T13:28:19;4.63;;;1.10;;
69847;SDS011;57143;55.940;37.496;2023-05-07T13:30:46;4.80;;;1.02;;
69847;SDS011;57143;55.940;37.496;2023-05-07T13:33:13;5.03;;;1.33;;
69847;SDS011;57143;55.940;37.496;2023-05-07T13:35:41;3.95;;;1.00;;
69847;SDS011;57143;55.940;37.496;2023-05-07T13:38:08;4.43;;;0.90;;
69847;SDS011;57143;55.940;37.496;2023-05-07T13:40:36;4.95;;;1.33;;
69847;SDS011;57143;55.940;37.496;2023-05-07T13:43:05;4.97;;;1.10;;
69847;SDS011;57143;55.940;37.496;2023-05-07T13:45:33;4.35;;;0.93;;
69847;SDS011;57143;55.940;37.496;2023-05-07T13:48:00;4.45;;;1.10;;
69847;SDS011;57143;55.940;37.496;2023-05-07T13:50:27;4.87;;;1.20;;
69847;SDS011;57143;55.940;37.496;2023-05-07T13:52:55;5.05;;;1.13;;
69847;SDS011;57143;55.940;37.496;2023-05-07T13:55:23;4.32;;;1.17;;
69847;SDS011;57143;55.940;37.496;2023-05-07T13:57:55;4.03;;;1.00;;
69847;SDS011;57143;55.940;37.496;2023-05-07T14:00:24;4.40;;;1.23;;
69847;SDS011;57143;55.940;37.496;2023-05-07T14:02:51;4.17;;;1.00;;
69847;SDS011;57143;55.940;37.496;2023-05-07T14:05:18;4.35;;;1.10;;
69847;SDS011;57143;55.940;37.496;2023-05-07T14:07:46;6.38;;;1.23;;
69847;SDS011;57143;55.940;37.496;2023-05-07T14:10:14;4.10;;;1.00;;
69847;SDS011;57143;55.940;37.496;2023-05-07T14:12:41;4.78;;;1.05;;
69847;SDS011;57143;55.940;37.496;2023-05-07T14:15:10;4.47;;;1.00;;
69847;SDS011;57143;55.940;37.496;2023-05-07T14:17:37;4.47;;;1.25;;
69847;SDS011;57143;55.940;37.496;2023-05-07T14:20:05;6.03;;;1.17;;
69847;SDS011;57143;55.940;37.496;2023-05-07T14:22:33;4.85;;;1.20;;
69847;SDS011;57143;55.940;37.496;2023-05-07T14:25:01;5.18;;;1.20;;
69847;SDS011;57143;55.940;37.496;2023-05-07T14:27:31;5.60;;;1.10;;
69847;SDS011;57143;55.940;37.496;2023-05-07T14:29:58;6.78;;;1.27;;
69847;SDS011;57143;55.940;37.496;2023-05-07T14:32:26;6.13;;;1.55;;
69847;SDS011;57143;55.940;37.496;2023-05-07T14:34:54;4.43;;;1.10;;
69847;SDS011;57143;55.940;37.496;2023-05-07T14:37:21;4.80;;;1.10;;
69847;SDS011;57143;55.940;37.496;2023-05-07T14:39:48;5.13;;;1.30;;
69847;SDS011;57143;55.940;37.496;2023-05-07T14:42:15;4.82;;;0.98;;
69847;SDS011;57143;55.940;37.496;2023-05-07T14:44:42;5.07;;;1.05;;
69847;SDS011;57143;55.940;37.496;2023-05-07T14:47:10;6.38;;;1.10;;
69847;SDS011;57143;55.940;37.496;2023-05-07T14:49:39;4.30;;;1.30;;
69847;SDS011;57143;55.940;37.496;2023-05-07T14:52:07;5.17;;;1.10;;
69847;SDS011;57143;55.940;37.496;2023-05-07T14:54:37;5.03;;;1.30;;
69847;SDS011;57143;55.940;37.496;2023-05-07T14:57:05;6.13;;;1.60;;
69847;SDS011;57143;55.940;37.496;2023-05-07T14:59:33;4.82;;;1.10;;
69847;SDS011;57143;55.940;37.496;2023-05-07T15:02:00;4.30;;;1.27;;
69847;SDS011;57143;55.940;37.496;2023-05-07T15:04:27;4.37;;;0.97;;
69847;SDS011;57143;55.940;37.496;2023-05-07T15:06:56;4.38;;;1.20;;
69847;SDS011;57143;55.940;37.496;2023-05-07T15:09:23;4.78;;;1.20;;
69847;SDS011;57143;55.940;37.496;2023-05-07T15:11:50;6.18;;;1.17;;
69847;SDS011;57143;55.940;37.496;2023-05-07T15:14:18;7.57;;;1.45;;
69847;SDS011;57143;55.940;37.496;2023-05-07T15:16:47;5.37;;;0.97;;
69847;SDS011;57143;55.940;37.496;2023-05-07T15:19:14;4.68;;;1.40;;
69847;SDS011;57143;55.940;37.496;2023-05-07T15:21:42;5.15;;;1.38;;
69847;SDS011;57143;55.940;37.496;2023-05-07T15:24:10;4.60;;;1.20;;
69847;SDS011;57143;55.940;37.496;2023-05-07T15:26:38;4.75;;;1.02;;
69847;SDS011;57143;55.940;37.496;2023-05-07T15:29:05;5.93;;;1.10;;
69847;SDS011;57143;55.940;37.496;2023-05-07T15:31:35;4.47;;;1.15;;
69847;SDS011;57143;55.940;37.496;2023-05-07T15:34:04;4.68;;;1.30;;
69847;SDS011;57143;55.940;37.496;2023-05-07T15:36:31;7.53;;;2.15;;
69847;SDS011;57143;55.940;37.496;2023-05-07T15:38:58;6.32;;;1.48;;
69847;SDS011;57143;55.940;37.496;2023-05-07T15:41:28;5.90;;;1.40;;
69847;SDS011;57143;55.940;37.496;2023-05-07T15:43:56;4.95;;;1.25;;
69847;SDS011;57143;55.940;37.496;2023-05-07T15:46:23;5.50;;;1.17;;
69847;SDS011;57143;55.940;37.496;2023-05-07T15:48:51;4.90;;;1.40;;
69847;SDS011;57143;55.940;37.496;2023-05-07T15:51:19;6.15;;;1.65;;